createdAt,value
2023-04-26T00:01:31.738Z,11.78
2023-04-26T00:03:58.745Z,11.79
2023-04-26T00:06:27.071Z,11.80
2023-04-26T00:08:54.184Z,11.80
2023-04-26T00:11:21.240Z,11.80
2023-04-26T00:13:48.058Z,11.79
2023-04-26T00:16:14.868Z,11.80
2023-04-26T00:18:41.702Z,11.77
2023-04-26T00:21:08.565Z,11.74
2023-04-26T00:23:36.570Z,11.70
2023-04-26T00:26:03.732Z,11.66
2023-04-26T00:28:31.396Z,11.62
2023-04-26T00:30:58.353Z,11.58
2023-04-26T00:33:25.905Z,11.53
2023-04-26T00:35:52.949Z,11.51
2023-04-26T00:38:19.836Z,11.47
2023-04-26T00:40:46.738Z,11.45
2023-04-26T00:43:13.566Z,11.43
2023-04-26T00:45:40.450Z,11.40
2023-04-26T00:48:07.499Z,11.37
2023-04-26T00:50:34.533Z,11.35
2023-04-26T00:53:03.671Z,11.32
2023-04-26T00:55:30.804Z,11.32
2023-04-26T00:57:57.729Z,11.32
2023-04-26T01:00:25.777Z,11.31
2023-04-26T01:02:52.853Z,11.30
2023-04-26T01:05:19.838Z,11.29
2023-04-26T01:07:47.458Z,11.26
2023-04-26T01:10:14.231Z,11.23
2023-04-26T01:12:41.440Z,11.18
2023-04-26T01:15:11.318Z,11.12
2023-04-26T01:17:38.727Z,11.08
2023-04-26T01:20:08.848Z,11.03
2023-04-26T01:22:36.458Z,10.99
2023-04-26T01:25:07.560Z,10.95
2023-04-26T01:27:34.825Z,10.92
2023-04-26T01:30:01.931Z,10.88
2023-04-26T01:32:31.199Z,10.86
2023-04-26T01:34:58.467Z,10.84
2023-04-26T01:37:25.383Z,10.83
2023-04-26T01:39:52.677Z,10.81
2023-04-26T01:42:20.383Z,10.81
2023-04-26T01:44:47.229Z,10.79
2023-04-26T01:47:14.060Z,10.77
2023-04-26T01:49:41.596Z,10.75
2023-04-26T01:52:08.498Z,10.72
2023-04-26T01:54:35.316Z,10.68
2023-04-26T01:57:02.700Z,10.63
2023-04-26T01:59:29.754Z,10.59
2023-04-26T02:01:58.910Z,10.53
2023-04-26T02:04:27.664Z,10.48
2023-04-26T02:06:54.786Z,10.41
2023-04-26T02:09:24.026Z,10.34
2023-04-26T02:11:50.811Z,10.30
2023-04-26T02:14:17.670Z,10.25
2023-04-26T02:16:44.774Z,10.19
2023-04-26T02:19:13.496Z,10.12
2023-04-26T02:21:57.694Z,10.02
2023-04-26T02:24:25.452Z,9.99
2023-04-26T02:26:54.329Z,9.96
2023-04-26T02:29:29.422Z,9.93
2023-04-26T02:32:03.140Z,9.92
2023-04-26T02:34:29.964Z,9.92
2023-04-26T02:36:56.940Z,9.94
2023-04-26T02:39:24.723Z,9.93
2023-04-26T02:41:51.567Z,9.95
2023-04-26T02:44:18.420Z,9.95
2023-04-26T02:46:45.297Z,9.97
2023-04-26T02:49:12.149Z,9.99
2023-04-26T02:51:39.017Z,10.01
2023-04-26T02:54:07.060Z,10.03
2023-04-26T02:56:34.551Z,10.02
2023-04-26T02:59:01.603Z,10.02
2023-04-26T03:01:28.420Z,10.02
2023-04-26T03:03:55.687Z,10.03
2023-04-26T03:06:23.525Z,10.03
2023-04-26T03:08:50.721Z,10.04
2023-04-26T03:11:17.679Z,10.05
2023-04-26T03:13:44.647Z,10.07
2023-04-26T03:16:11.599Z,10.09
2023-04-26T03:18:38.449Z,10.09
2023-04-26T03:21:06.649Z,10.11
2023-04-26T03:23:34.101Z,10.12
2023-04-26T03:26:01.155Z,10.13
2023-04-26T03:28:28.339Z,10.15
2023-04-26T03:30:55.675Z,10.15
2023-04-26T03:33:22.827Z,10.17
2023-04-26T03:35:49.819Z,10.18
2023-04-26T03:38:17.484Z,10.19
2023-04-26T03:40:45.219Z,10.19
2023-04-26T03:43:12.073Z,10.19
2023-04-26T03:45:38.876Z,10.18
2023-04-26T03:48:07.158Z,10.17
2023-04-26T03:50:34.045Z,10.16
2023-04-26T03:53:00.907Z,10.14
2023-04-26T03:55:27.980Z,10.14
2023-04-26T03:57:54.877Z,10.11
2023-04-26T04:00:23.481Z,10.10
2023-04-26T04:02:50.643Z,10.11
2023-04-26T04:05:24.156Z,10.10
2023-04-26T04:07:50.984Z,10.09
2023-04-26T04:10:17.814Z,10.06
2023-04-26T04:12:45.504Z,10.05
2023-04-26T04:15:12.489Z,10.01
2023-04-26T04:17:44.591Z,10.01
2023-04-26T04:20:12.439Z,9.99
2023-04-26T04:22:40.285Z,9.98
2023-04-26T04:25:13.711Z,9.99
2023-04-26T04:27:43.301Z,9.98
2023-04-26T04:30:12.088Z,9.98
2023-04-26T04:32:40.306Z,9.98
2023-04-26T04:35:07.811Z,9.96
2023-04-26T04:37:35.223Z,9.96
2023-04-26T04:40:04.660Z,9.94
2023-04-26T04:42:34.870Z,9.95
2023-04-26T04:45:03.308Z,9.95
2023-04-26T04:47:30.272Z,9.95
2023-04-26T04:49:57.169Z,9.95
2023-04-26T04:52:24.025Z,9.98
2023-04-26T04:54:51.101Z,9.98
2023-04-26T04:57:18.808Z,9.99
2023-04-26T04:59:47.402Z,9.99
2023-04-26T05:02:14.393Z,10.00
2023-04-26T05:04:41.588Z,10.00
2023-04-26T05:07:09.397Z,10.01
2023-04-26T05:09:41.129Z,9.95
2023-04-26T05:12:08.171Z,10.03
2023-04-26T05:14:35.326Z,10.04
2023-04-26T05:17:02.188Z,10.05
2023-04-26T05:19:29.127Z,10.06
2023-04-26T05:21:57.807Z,10.07
2023-04-26T05:24:24.712Z,10.10
2023-04-26T05:26:51.862Z,10.14
2023-04-26T05:29:38.182Z,10.16
2023-04-26T05:32:24.761Z,10.19
2023-04-26T05:35:02.643Z,10.24
2023-04-26T05:37:30.698Z,10.28
2023-04-26T05:39:57.747Z,10.33
2023-04-26T05:42:24.539Z,10.36
2023-04-26T05:44:51.390Z,10.40
2023-04-26T05:47:18.290Z,10.43
2023-04-26T05:49:45.445Z,10.48
2023-04-26T05:52:12.282Z,10.52
2023-04-26T05:54:39.933Z,10.58
2023-04-26T05:57:06.932Z,10.63
2023-04-26T05:59:36.971Z,10.67
2023-04-26T06:02:05.050Z,10.75
2023-04-26T06:04:32.828Z,10.80
2023-04-26T06:07:10.407Z,10.86
2023-04-26T06:09:37.355Z,10.94
2023-04-26T06:12:04.669Z,10.99
2023-04-26T06:14:34.621Z,11.04
2023-04-26T06:17:05.971Z,11.11
2023-04-26T06:19:32.893Z,11.16
2023-04-26T06:21:59.725Z,11.21
2023-04-26T06:24:26.658Z,11.26
2023-04-26T06:26:53.811Z,11.31
2023-04-26T06:29:21.562Z,11.34
2023-04-26T06:31:48.634Z,11.37
2023-04-26T06:34:16.132Z,11.42
2023-04-26T06:36:43.004Z,11.48
2023-04-26T06:39:11.171Z,11.53
2023-04-26T06:41:39.014Z,11.58
2023-04-26T06:44:05.983Z,11.64
2023-04-26T06:46:32.900Z,11.70
2023-04-26T06:49:01.440Z,11.74
2023-04-26T06:51:29.630Z,11.80
2023-04-26T06:53:59.007Z,11.85
2023-04-26T06:56:26.035Z,11.92
2023-04-26T06:59:01.785Z,11.97
2023-04-26T07:01:29.554Z,12.06
2023-04-26T07:03:59.676Z,12.12
2023-04-26T07:06:27.004Z,12.18
2023-04-26T07:08:54.295Z,12.23
2023-04-26T07:11:23.403Z,12.29
2023-04-26T07:13:52.577Z,12.36
2023-04-26T07:16:20.026Z,12.43
2023-04-26T07:18:48.593Z,12.50
2023-04-26T07:21:15.842Z,12.56
2023-04-26T07:23:42.624Z,12.64
2023-04-26T07:26:11.502Z,12.71
2023-04-26T07:28:38.349Z,12.79
2023-04-26T07:31:07.789Z,12.87
2023-04-26T07:33:35.757Z,12.94
2023-04-26T07:36:02.890Z,13.03
2023-04-26T07:38:29.736Z,13.12
2023-04-26T07:40:56.634Z,13.19
2023-04-26T07:43:23.498Z,13.26
2023-04-26T07:45:50.337Z,13.33
2023-04-26T07:48:17.176Z,13.43
2023-04-26T07:50:44.166Z,13.50
2023-04-26T07:53:11.044Z,13.56
2023-04-26T07:55:37.953Z,13.63
2023-04-26T07:58:04.764Z,13.73
2023-04-26T08:00:31.638Z,13.81
2023-04-26T08:02:58.677Z,13.89
2023-04-26T08:05:25.955Z,13.97
2023-04-26T08:07:52.898Z,14.03
2023-04-26T08:10:19.811Z,14.12
2023-04-26T08:12:46.740Z,14.19
2023-04-26T08:15:13.663Z,14.28
2023-04-26T08:17:41.348Z,14.36
2023-04-26T08:20:09.618Z,14.42
2023-04-26T08:22:36.797Z,14.51
2023-04-26T08:25:04.668Z,14.57
2023-04-26T08:27:31.879Z,14.63
2023-04-26T08:29:58.701Z,14.70
2023-04-26T08:32:26.090Z,14.77
2023-04-26T08:34:52.982Z,14.82
2023-04-26T08:37:19.823Z,14.87
2023-04-26T08:39:46.927Z,14.90
2023-04-26T08:42:16.448Z,14.94
2023-04-26T08:44:45.592Z,15.01
2023-04-26T08:47:48.033Z,15.06
2023-04-26T08:50:18.583Z,15.13
2023-04-26T08:52:50.754Z,15.17
2023-04-26T08:55:22.484Z,15.25
2023-04-26T08:57:50.726Z,15.28
2023-04-26T09:00:19.622Z,15.33
2023-04-26T09:02:49.893Z,15.36
2023-04-26T09:05:17.368Z,15.41
2023-04-26T09:07:48.268Z,15.44
2023-04-26T09:10:22.205Z,15.47
2023-04-26T09:12:53.645Z,15.50
2023-04-26T09:15:26.432Z,15.50
2023-04-26T09:17:53.911Z,15.52
2023-04-26T09:20:28.974Z,15.52
2023-04-26T09:23:09.914Z,15.52
2023-04-26T09:25:37.482Z,15.60
2023-04-26T09:28:19.114Z,15.61
2023-04-26T09:30:46.203Z,15.73
2023-04-26T09:33:13.086Z,15.76
2023-04-26T09:35:44.308Z,15.77
2023-04-26T09:38:14.662Z,15.82
2023-04-26T09:40:49.980Z,15.85
2023-04-26T09:43:19.668Z,15.90
2023-04-26T09:45:53.546Z,15.95
2023-04-26T09:48:30.256Z,16.03
2023-04-26T09:50:59.628Z,16.12
2023-04-26T09:53:31.743Z,16.19
2023-04-26T09:56:18.916Z,16.28
2023-04-26T09:59:02.457Z,16.43
2023-04-26T10:01:32.661Z,16.52
2023-04-26T10:04:04.374Z,16.58
2023-04-26T10:06:32.843Z,16.67
2023-04-26T10:09:01.798Z,16.72
2023-04-26T10:11:30.450Z,16.78
2023-04-26T10:13:57.532Z,16.84
2023-04-26T10:16:24.659Z,16.86
2023-04-26T10:18:51.727Z,16.86
2023-04-26T10:21:32.544Z,16.83
2023-04-26T10:24:00.425Z,16.89
2023-04-26T10:26:52.712Z,16.85
2023-04-26T10:29:21.144Z,16.88
2023-04-26T10:32:06.203Z,16.83
2023-04-26T10:34:35.064Z,16.84
2023-04-26T10:37:16.745Z,16.79
2023-04-26T10:39:45.497Z,16.81
2023-04-26T10:42:30.742Z,16.76
2023-04-26T10:44:59.559Z,16.81
2023-04-26T10:47:36.923Z,16.81
2023-04-26T10:50:12.726Z,16.84
2023-04-26T10:53:03.507Z,16.87
2023-04-26T10:55:41.714Z,16.90
2023-04-26T10:58:35.309Z,16.87
2023-04-26T11:01:18.843Z,16.87
2023-04-26T11:03:58.737Z,16.88
2023-04-26T11:06:26.767Z,16.91
2023-04-26T11:08:54.467Z,16.94
2023-04-26T11:11:26.837Z,16.97
2023-04-26T11:13:53.652Z,17.10
2023-04-26T11:16:20.676Z,17.20
2023-04-26T11:18:48.207Z,17.35
2023-04-26T11:21:17.906Z,17.51
2023-04-26T11:23:54.585Z,17.64
2023-04-26T11:26:22.304Z,17.83
2023-04-26T11:28:49.581Z,18.00
2023-04-26T11:31:19.132Z,18.18
2023-04-26T11:33:47.792Z,18.38
2023-04-26T11:36:17.078Z,18.58
2023-04-26T11:38:44.167Z,18.75
2023-04-26T11:41:11.397Z,18.94
2023-04-26T11:43:39.816Z,19.11
2023-04-26T11:46:08.424Z,19.25
2023-04-26T11:48:37.524Z,19.36
2023-04-26T11:51:07.216Z,19.42
2023-04-26T11:53:40.289Z,19.42
2023-04-26T11:56:18.366Z,19.36
2023-04-26T11:58:50.857Z,19.35
2023-04-26T12:01:22.066Z,19.35
2023-04-26T12:03:55.743Z,19.33
2023-04-26T12:06:43.473Z,19.33
2023-04-26T12:09:11.608Z,19.40
2023-04-26T12:11:39.554Z,19.41
2023-04-26T12:14:08.027Z,19.43
2023-04-26T12:16:38.332Z,19.43
2023-04-26T12:19:09.014Z,19.45
2023-04-26T12:21:45.172Z,19.38
2023-04-26T12:24:26.774Z,19.33
2023-04-26T12:26:53.675Z,19.35
2023-04-26T12:29:20.514Z,19.35
2023-04-26T12:31:47.836Z,19.38
2023-04-26T12:34:14.659Z,19.41
2023-04-26T12:36:44.437Z,19.43
2023-04-26T12:39:14.322Z,19.46
2023-04-26T12:41:41.879Z,19.39
2023-04-26T12:44:09.909Z,19.52
2023-04-26T12:46:37.059Z,19.55
2023-04-26T12:49:04.599Z,19.58
2023-04-26T12:51:31.994Z,19.58
2023-04-26T12:53:58.951Z,19.59
2023-04-26T12:56:25.885Z,19.61
2023-04-26T12:58:52.692Z,19.63
2023-04-26T13:01:19.674Z,19.66
2023-04-26T13:03:46.845Z,19.68
2023-04-26T13:06:13.858Z,19.72
2023-04-26T13:08:42.289Z,19.78
2023-04-26T13:11:09.075Z,19.84
2023-04-26T13:13:43.139Z,19.89
2023-04-26T13:16:12.330Z,19.91
2023-04-26T13:18:40.369Z,19.93
2023-04-26T13:21:07.440Z,19.97
2023-04-26T13:23:34.239Z,20.01
2023-04-26T13:26:01.005Z,20.04
2023-04-26T13:28:27.824Z,20.07
2023-04-26T13:30:55.742Z,20.04
2023-04-26T13:33:22.657Z,20.02
2023-04-26T13:35:49.480Z,19.98
2023-04-26T13:38:16.784Z,19.92
2023-04-26T13:40:44.160Z,19.84
2023-04-26T13:43:11.154Z,19.76
2023-04-26T13:45:38.744Z,19.71
2023-04-26T13:48:05.729Z,19.71
2023-04-26T13:50:32.581Z,19.72
2023-04-26T13:53:00.147Z,19.76
2023-04-26T13:55:26.946Z,19.79
2023-04-26T13:57:53.795Z,19.78
2023-04-26T14:00:21.249Z,19.71
2023-04-26T14:02:49.419Z,19.61
2023-04-26T14:05:16.621Z,19.51
2023-04-26T14:07:43.753Z,19.42
2023-04-26T14:10:12.103Z,19.38
2023-04-26T14:12:39.636Z,19.40
2023-04-26T14:15:07.702Z,19.41
2023-04-26T14:17:34.581Z,19.43
2023-04-26T14:20:01.542Z,19.46
2023-04-26T14:22:28.372Z,19.47
2023-04-26T14:24:55.202Z,19.51
2023-04-26T14:27:22.000Z,19.55
2023-04-26T14:29:48.864Z,19.60
2023-04-26T14:32:15.856Z,19.69
2023-04-26T14:34:43.026Z,19.74
2023-04-26T14:37:10.319Z,19.78
2023-04-26T14:39:37.292Z,19.82
2023-04-26T14:42:04.775Z,19.82
2023-04-26T14:44:31.800Z,19.77
2023-04-26T14:46:58.645Z,19.72
2023-04-26T14:49:25.651Z,19.69
2023-04-26T14:51:53.729Z,19.66
2023-04-26T14:54:21.393Z,19.65
2023-04-26T14:56:48.679Z,19.67
2023-04-26T14:59:15.967Z,19.64
2023-04-26T15:01:43.031Z,19.63
2023-04-26T15:04:10.171Z,19.64
2023-04-26T15:06:37.130Z,19.69
2023-04-26T15:09:04.519Z,19.72
2023-04-26T15:11:31.364Z,19.78
2023-04-26T15:13:58.333Z,19.85
2023-04-26T15:16:25.265Z,19.97
2023-04-26T15:18:52.148Z,20.06
2023-04-26T15:21:19.420Z,20.12
2023-04-26T15:23:46.500Z,20.13
2023-04-26T15:26:14.253Z,20.10
2023-04-26T15:28:41.142Z,20.09
2023-04-26T15:31:09.834Z,20.08
2023-04-26T15:33:36.721Z,20.13
2023-04-26T15:36:03.937Z,20.15
2023-04-26T15:38:30.745Z,20.19
2023-04-26T15:40:57.631Z,20.25
2023-04-26T15:43:24.429Z,20.29
2023-04-26T15:45:51.474Z,20.40
2023-04-26T15:48:18.378Z,20.55
2023-04-26T15:50:46.119Z,20.70
2023-04-26T15:53:12.941Z,20.84
2023-04-26T15:55:39.708Z,21.11
2023-04-26T15:58:06.501Z,21.36
2023-04-26T16:00:33.944Z,21.63
2023-04-26T16:03:02.145Z,21.84
2023-04-26T16:05:29.261Z,22.05
2023-04-26T16:07:56.255Z,22.23
2023-04-26T16:10:23.760Z,22.53
2023-04-26T16:12:50.805Z,22.84
2023-04-26T16:15:18.042Z,23.13
2023-04-26T16:17:44.949Z,23.51
2023-04-26T16:20:12.100Z,23.78
2023-04-26T16:22:38.921Z,23.99
2023-04-26T16:25:06.862Z,24.35
2023-04-26T16:27:33.936Z,24.87
2023-04-26T16:30:00.998Z,25.46
2023-04-26T16:32:30.525Z,26.00
2023-04-26T16:34:57.420Z,26.54
2023-04-26T16:37:24.244Z,27.08
2023-04-26T16:39:55.709Z,27.56
2023-04-26T16:42:22.740Z,28.02
2023-04-26T16:44:49.558Z,28.17
2023-04-26T16:47:16.386Z,27.97
2023-04-26T16:49:43.223Z,27.63
2023-04-26T16:52:10.110Z,27.25
2023-04-26T16:54:36.957Z,26.77
2023-04-26T16:57:04.419Z,26.31
2023-04-26T16:59:31.346Z,26.03
2023-04-26T17:01:58.282Z,25.73
2023-04-26T17:04:26.419Z,25.44
2023-04-26T17:06:54.576Z,25.31
2023-04-26T17:09:21.504Z,24.96
2023-04-26T17:11:49.875Z,24.60
2023-04-26T17:14:16.758Z,24.22
2023-04-26T17:16:43.698Z,23.85
2023-04-26T17:19:10.755Z,23.44
2023-04-26T17:21:37.662Z,23.08
2023-04-26T17:24:04.697Z,22.73
2023-04-26T17:26:31.521Z,22.41
2023-04-26T17:28:58.297Z,22.12
2023-04-26T17:31:25.420Z,21.81
2023-04-26T17:33:52.270Z,21.52
2023-04-26T17:36:19.399Z,21.26
2023-04-26T17:38:46.243Z,20.97
2023-04-26T17:41:13.522Z,20.73
2023-04-26T17:43:40.541Z,20.50
2023-04-26T17:46:07.509Z,20.26
2023-04-26T17:48:34.419Z,20.03
2023-04-26T17:51:01.265Z,19.81
2023-04-26T17:53:28.105Z,19.62
2023-04-26T17:55:55.188Z,19.42
2023-04-26T17:58:21.969Z,19.24
2023-04-26T18:00:49.434Z,19.10
2023-04-26T18:03:16.406Z,18.97
2023-04-26T18:05:43.779Z,18.83
2023-04-26T18:08:10.651Z,18.74
2023-04-26T18:10:37.517Z,18.64
2023-04-26T18:13:04.319Z,18.56
2023-04-26T18:15:31.294Z,18.43
2023-04-26T18:17:58.142Z,18.35
2023-04-26T18:20:24.943Z,18.25
2023-04-26T18:22:51.748Z,18.13
2023-04-26T18:25:18.931Z,18.02
2023-04-26T18:27:46.913Z,17.89
2023-04-26T18:30:13.873Z,17.78
2023-04-26T18:32:41.200Z,17.67
2023-04-26T18:35:08.528Z,17.55
2023-04-26T18:37:36.128Z,17.43
2023-04-26T18:40:04.945Z,17.32
2023-04-26T18:42:31.787Z,17.20
2023-04-26T18:44:59.599Z,17.12
2023-04-26T18:47:26.629Z,17.03
2023-04-26T18:49:53.506Z,16.95
2023-04-26T18:52:22.577Z,16.89
2023-04-26T18:54:49.356Z,16.84
2023-04-26T18:57:21.817Z,16.76
2023-04-26T18:59:49.280Z,16.70
2023-04-26T19:02:16.112Z,16.63
2023-04-26T19:04:43.186Z,16.56
2023-04-26T19:07:10.097Z,16.48
2023-04-26T19:09:50.379Z,16.40
2023-04-26T19:12:20.431Z,16.33
2023-04-26T19:14:47.268Z,16.27
2023-04-26T19:17:14.308Z,16.22
2023-04-26T19:19:41.735Z,16.16
2023-04-26T19:22:08.571Z,16.11
2023-04-26T19:24:35.686Z,16.06
2023-04-26T19:27:02.769Z,16.01
2023-04-26T19:29:30.952Z,15.96
2023-04-26T19:31:59.912Z,15.92
2023-04-26T19:34:26.833Z,15.88
2023-04-26T19:36:53.670Z,15.85
2023-04-26T19:39:22.641Z,15.81
2023-04-26T19:41:51.834Z,15.71
2023-04-26T19:44:20.265Z,15.76
2023-04-26T19:46:47.172Z,15.74
2023-04-26T19:49:14.007Z,15.72
2023-04-26T19:51:41.139Z,15.70
2023-04-26T19:54:07.913Z,15.68
2023-04-26T19:56:34.725Z,15.67
2023-04-26T19:59:01.546Z,15.65
2023-04-26T20:01:28.593Z,15.62
2023-04-26T20:03:55.711Z,15.59
2023-04-26T20:06:22.730Z,15.57
2023-04-26T20:08:49.508Z,15.54
2023-04-26T20:11:17.361Z,15.50
2023-04-26T20:13:45.280Z,15.47
2023-04-26T20:16:12.645Z,15.42
2023-04-26T20:18:39.653Z,15.39
2023-04-26T20:21:06.517Z,15.35
2023-04-26T20:23:33.469Z,15.30
2023-04-26T20:26:00.555Z,15.27
2023-04-26T20:28:27.371Z,15.25
2023-04-26T20:30:54.208Z,15.21
2023-04-26T20:33:21.265Z,15.17
2023-04-26T20:35:48.055Z,15.13
2023-04-26T20:38:14.852Z,15.10
2023-04-26T20:40:41.747Z,15.05
2023-04-26T20:43:08.615Z,15.02
2023-04-26T20:45:35.549Z,14.97
2023-04-26T20:48:02.415Z,14.91
2023-04-26T20:50:29.284Z,14.87
2023-04-26T20:52:56.216Z,14.83
2023-04-26T20:55:23.141Z,14.80
2023-04-26T20:57:49.995Z,14.76
2023-04-26T21:00:17.204Z,14.72
2023-04-26T21:02:44.152Z,14.68
2023-04-26T21:05:11.091Z,14.65
2023-04-26T21:07:37.924Z,14.61
2023-04-26T21:10:05.239Z,14.59
2023-04-26T21:12:32.107Z,14.55
2023-04-26T21:14:59.028Z,14.54
2023-04-26T21:17:25.889Z,14.51
2023-04-26T21:19:52.692Z,14.48
2023-04-26T21:22:19.505Z,14.46
2023-04-26T21:24:46.308Z,14.43
2023-04-26T21:27:13.146Z,14.41
2023-04-26T21:29:39.917Z,14.39
2023-04-26T21:32:06.704Z,14.38
2023-04-26T21:34:33.458Z,14.34
2023-04-26T21:37:00.328Z,14.30
2023-04-26T21:39:27.133Z,14.27
2023-04-26T21:41:53.910Z,14.24
2023-04-26T21:44:20.806Z,14.22
2023-04-26T21:46:47.689Z,14.19
2023-04-26T21:49:14.500Z,14.18
2023-04-26T21:51:41.318Z,14.17
2023-04-26T21:54:08.143Z,14.15
2023-04-26T21:56:34.915Z,14.13
2023-04-26T21:59:02.510Z,14.11
2023-04-26T22:01:29.498Z,14.11
2023-04-26T22:03:56.490Z,14.10
2023-04-26T22:06:23.466Z,14.09
2023-04-26T22:08:50.461Z,14.06
2023-04-26T22:11:17.258Z,14.04
2023-04-26T22:13:44.099Z,14.03
2023-04-26T22:16:11.006Z,14.01
2023-04-26T22:18:37.826Z,13.98
2023-04-26T22:21:04.599Z,13.97
2023-04-26T22:23:31.476Z,13.96
2023-04-26T22:26:00.469Z,13.93
2023-04-26T22:28:27.280Z,13.90
2023-04-26T22:30:54.116Z,13.88
2023-04-26T22:33:21.435Z,13.85
2023-04-26T22:35:48.314Z,13.82
2023-04-26T22:38:15.149Z,13.81
2023-04-26T22:40:42.402Z,13.79
2023-04-26T22:43:09.220Z,13.77
2023-04-26T22:45:37.040Z,13.75
2023-04-26T22:48:04.180Z,13.75
2023-04-26T22:50:31.238Z,13.75
2023-04-26T22:52:58.054Z,13.72
2023-04-26T22:55:25.003Z,13.70
2023-04-26T22:57:51.897Z,13.67
2023-04-26T23:00:19.850Z,13.66
2023-04-26T23:02:46.821Z,13.63
2023-04-26T23:05:13.714Z,13.61
2023-04-26T23:07:40.609Z,13.60
2023-04-26T23:10:08.245Z,13.57
2023-04-26T23:12:38.579Z,13.57
2023-04-26T23:15:06.235Z,13.56
2023-04-26T23:17:34.406Z,13.55
2023-04-26T23:20:01.253Z,13.54
2023-04-26T23:22:28.152Z,13.55
2023-04-26T23:24:55.042Z,13.54
2023-04-26T23:27:21.876Z,13.54
2023-04-26T23:29:50.620Z,13.52
2023-04-26T23:32:17.421Z,13.53
2023-04-26T23:34:44.374Z,13.54
2023-04-26T23:37:11.250Z,13.54
2023-04-26T23:39:38.056Z,13.53
2023-04-26T23:42:04.943Z,13.54
2023-04-26T23:44:31.739Z,13.52
2023-04-26T23:46:58.517Z,13.52
2023-04-26T23:49:25.682Z,13.52
2023-04-26T23:51:52.517Z,13.52
2023-04-26T23:54:19.413Z,13.50
2023-04-26T23:56:46.457Z,13.46
2023-04-26T23:59:14.234Z,13.42
